Time;durP1;ratioP1;P1;durP2;ratioP2;P2;SDS_P1;SDS_P2;PMS_P1;PMS_P2;Temp;Humidity;BMP_temperature;BMP_pressure;BME280_temperature;BME280_humidity;BME280_pressure;Samples;Min_cycle;Max_cycle;Signal;HPM_P1;HPM_P2
2021/12/20 00:02:23;;;;;;;1.47;0.90;;;3.10;99.90;;;;;;5030740;28;20232;-73
2021/12/20 00:04:52;;;;;;;2.20;0.97;;;3.20;99.90;;;;;;5030492;28;20209;-73
2021/12/20 00:07:21;;;;;;;2.37;0.70;;;3.20;99.90;;;;;;5030523;28;20216;-73
2021/12/20 00:09:48;;;;;;;2.87;1.13;;;3.20;99.90;;;;;;5030372;28;20605;-73
2021/12/20 00:12:14;;;;;;;0.70;0.60;;;3.10;99.90;;;;;;5030252;28;20655;-73
2021/12/20 00:14:41;;;;;;;1.23;1.00;;;3.00;99.90;;;;;;5030176;28;20604;-73
2021/12/20 00:17:08;;;;;;;1.53;0.80;;;2.90;99.90;;;;;;5030709;28;20232;-73
2021/12/20 00:19:34;;;;;;;2.13;0.90;;;2.70;99.90;;;;;;5030287;28;20690;-70
2021/12/20 00:22:01;;;;;;;2.73;0.90;;;2.70;99.90;;;;;;5030357;28;20220;-70
2021/12/20 00:24:29;;;;;;;1.13;1.03;;;2.70;99.90;;;;;;5027148;28;20224;-72
2021/12/20 00:26:56;;;;;;;0.90;0.70;;;2.60;99.90;;;;;;5030109;28;20237;-72
2021/12/20 00:29:22;;;;;;;2.20;0.70;;;2.50;99.90;;;;;;5030388;28;20208;-72
2021/12/20 00:31:49;;;;;;;2.60;0.70;;;2.50;99.90;;;;;;5028446;28;20205;-72
2021/12/20 00:34:15;;;;;;;1.57;0.83;;;2.50;99.90;;;;;;5010396;28;20439;-72
2021/12/20 00:36:42;;;;;;;1.47;0.70;;;2.40;99.90;;;;;;5010067;28;20213;-72
2021/12/20 00:41:54;;;;;;;2.07;0.40;;;2.50;99.90;;;;;;5009880;28;20196;-72
2021/12/20 00:44:21;;;;;;;2.60;0.60;;;2.50;99.90;;;;;;5009728;28;20303;-72
2021/12/20 00:46:48;;;;;;;1.97;0.70;;;2.40;99.90;;;;;;5009883;28;21040;-72
2021/12/20 00:49:14;;;;;;;1.20;0.80;;;2.50;99.90;;;;;;5010124;28;20206;-71
2021/12/20 00:51:41;;;;;;;0.97;0.67;;;2.40;99.90;;;;;;5009555;28;20221;-71
2021/12/20 00:54:08;;;;;;;2.40;1.00;;;2.50;99.90;;;;;;5009601;28;20241;-71
2021/12/20 00:56:34;;;;;;;1.97;0.80;;;2.50;99.90;;;;;;5021632;28;20609;-71
2021/12/20 00:59:02;;;;;;;1.27;0.80;;;2.40;99.90;;;;;;5029637;28;20263;-71
2021/12/20 01:01:29;;;;;;;0.63;0.60;;;2.40;99.90;;;;;;5029362;28;20229;-70
2021/12/20 01:03:56;;;;;;;1.23;0.77;;;2.40;99.90;;;;;;5029667;28;20290;-71
2021/12/20 01:06:22;;;;;;;1.37;0.50;;;2.30;99.90;;;;;;5029285;28;20205;-71
2021/12/20 01:08:50;;;;;;;1.43;0.50;;;2.30;99.90;;;;;;5028935;28;20208;-71
2021/12/20 01:11:22;;;;;;;0.97;0.60;;;2.40;99.90;;;;;;5029240;28;20215;-71
2021/12/20 01:13:48;;;;;;;1.83;0.63;;;2.20;99.90;;;;;;5029149;28;20203;-71
2021/12/20 01:16:16;;;;;;;1.23;0.83;;;2.30;99.90;;;;;;5029217;28;20204;-70
2021/12/20 01:18:43;;;;;;;0.30;0.30;;;2.30;99.90;;;;;;5028817;28;20451;-70
2021/12/20 01:21:10;;;;;;;2.77;0.80;;;2.40;99.90;;;;;;5027972;28;20567;-70
2021/12/20 01:23:38;;;;;;;1.93;0.40;;;2.30;99.90;;;;;;5028946;28;20294;-71
2021/12/20 01:26:05;;;;;;;1.60;0.53;;;2.30;99.90;;;;;;5028897;28;20260;-72
2021/12/20 01:28:32;;;;;;;2.20;1.33;;;2.40;99.90;;;;;;5028576;28;20205;-72
2021/12/20 01:30:58;;;;;;;2.07;1.13;;;2.40;99.90;;;;;;5028675;28;20663;-71
2021/12/20 01:33:26;;;;;;;0.90;0.63;;;2.20;99.90;;;;;;5028970;28;20208;-71
2021/12/20 01:35:55;;;;;;;2.30;1.23;;;2.10;99.90;;;;;;5028940;28;20208;-71
2021/12/20 01:38:24;;;;;;;2.37;0.90;;;2.20;99.90;;;;;;5029119;28;20205;-71
2021/12/20 01:40:51;;;;;;;1.67;0.80;;;2.20;99.90;;;;;;5029090;28;20567;-72
2021/12/20 01:43:18;;;;;;;1.50;0.70;;;2.20;99.90;;;;;;5029156;28;20228;-72
2021/12/20 01:45:48;;;;;;;1.07;0.60;;;2.10;99.90;;;;;;5028980;28;20233;-72
2021/12/20 01:48:17;;;;;;;0.90;0.60;;;2.20;99.90;;;;;;5029172;28;20209;-73
2021/12/20 01:51:13;;;;;;;6.77;1.00;;;2.30;99.90;;;;;;5028594;28;20213;-72
2021/12/20 01:53:40;;;;;;;1.23;0.80;;;2.20;99.90;;;;;;5028622;28;20201;-73
2021/12/20 01:56:08;;;;;;;1.47;0.80;;;2.20;99.90;;;;;;5028465;28;20247;-72
2021/12/20 01:58:34;;;;;;;3.80;0.80;;;2.10;99.90;;;;;;5028755;28;20205;-71
2021/12/20 02:01:24;;;;;;;3.33;1.00;;;2.00;99.90;;;;;;5028815;28;20652;-72
2021/12/20 02:03:57;;;;;;;5.50;1.00;;;2.00;99.90;;;;;;5028621;28;20236;-72
2021/12/20 02:06:31;;;;;;;2.77;0.50;;;2.10;99.90;;;;;;5028748;28;20193;-73
2021/12/20 02:08:59;;;;;;;2.40;0.70;;;2.20;99.90;;;;;;5028667;28;20192;-73
2021/12/20 02:11:26;;;;;;;5.53;0.90;;;2.30;99.90;;;;;;5028545;28;20212;-73
2021/12/20 02:13:53;;;;;;;1.50;0.53;;;2.30;99.90;;;;;;5028432;28;20299;-73
2021/12/20 02:16:20;;;;;;;0.67;0.67;;;2.10;99.90;;;;;;5028525;28;20209;-73
2021/12/20 02:18:48;;;;;;;2.30;0.83;;;2.00;99.90;;;;;;5028689;28;20250;-73
2021/12/20 02:21:16;;;;;;;3.43;0.73;;;2.00;99.90;;;;;;5028572;28;20564;-73
2021/12/20 02:23:43;;;;;;;3.13;0.70;;;2.00;99.90;;;;;;5028539;28;20232;-72
2021/12/20 02:26:11;;;;;;;2.83;0.80;;;2.00;99.90;;;;;;5028331;28;20251;-73
2021/12/20 02:28:43;;;;;;;2.00;0.80;;;2.10;99.90;;;;;;5028246;28;20204;-72
2021/12/20 02:39:39;;;;;;;1.73;0.53;;;1.80;99.90;;;;;;5027863;28;20232;-71
2021/12/20 02:42:06;;;;;;;3.47;0.70;;;1.70;99.90;;;;;;5028236;28;20231;-70
2021/12/20 02:44:33;;;;;;;1.90;0.80;;;1.80;99.90;;;;;;5027770;28;20331;-70
2021/12/20 02:47:08;;;;;;;1.97;0.73;;;1.70;99.90;;;;;;5028055;28;20205;-70
2021/12/20 02:49:36;;;;;;;1.10;0.60;;;1.70;99.90;;;;;;5027996;28;20278;-70
2021/12/20 02:52:06;;;;;;;1.40;0.60;;;1.60;99.90;;;;;;5027618;28;20231;-70
2021/12/20 02:54:33;;;;;;;3.60;0.70;;;1.70;99.90;;;;;;5027723;28;20306;-70
2021/12/20 02:57:01;;;;;;;2.53;0.97;;;1.60;99.90;;;;;;5028033;28;20208;-70
2021/12/20 02:59:28;;;;;;;2.30;0.70;;;1.60;99.90;;;;;;5028005;28;20217;-70
2021/12/20 03:01:56;;;;;;;2.43;1.00;;;1.60;99.90;;;;;;5027876;28;20237;-70
2021/12/20 03:04:23;;;;;;;3.50;0.97;;;1.60;99.90;;;;;;5027813;28;20232;-70
2021/12/20 03:06:53;;;;;;;2.20;0.87;;;1.60;99.90;;;;;;5027682;28;20212;-70
2021/12/20 03:09:26;;;;;;;0.97;0.63;;;1.60;99.90;;;;;;5027792;28;20319;-70
2021/12/20 03:11:55;;;;;;;1.87;1.00;;;1.50;99.90;;;;;;5027855;28;20311;-71
2021/12/20 03:14:26;;;;;;;3.70;1.27;;;1.50;99.90;;;;;;5027840;28;20211;-72
2021/12/20 03:16:53;;;;;;;2.23;1.30;;;1.50;99.90;;;;;;5027811;28;20562;-72
2021/12/20 03:19:20;;;;;;;2.90;0.70;;;1.50;99.90;;;;;;5027815;28;20622;-72
2021/12/20 03:21:46;;;;;;;2.63;1.20;;;1.70;99.90;;;;;;5027723;28;20228;-72
2021/12/20 03:24:13;;;;;;;1.93;0.90;;;1.80;99.90;;;;;;5027848;28;20241;-72
2021/12/20 03:26:41;;;;;;;5.27;1.00;;;1.70;99.90;;;;;;5027644;28;20287;-72
2021/12/20 03:29:08;;;;;;;3.50;0.70;;;1.70;99.90;;;;;;5027210;28;20687;-72
2021/12/20 03:31:34;;;;;;;2.77;0.87;;;1.70;99.90;;;;;;5027526;28;20521;-72
2021/12/20 03:34:02;;;;;;;3.13;0.97;;;1.90;99.90;;;;;;5027766;28;20408;-71
2021/12/20 03:36:29;;;;;;;3.27;0.90;;;1.90;99.90;;;;;;5027057;28;20821;-71
2021/12/20 03:38:55;;;;;;;2.00;0.70;;;1.80;99.90;;;;;;5027621;28;20262;-71
2021/12/20 03:41:22;;;;;;;3.43;0.77;;;1.70;99.90;;;;;;5027763;28;20209;-71
2021/12/20 03:43:50;;;;;;;3.10;0.73;;;1.70;99.90;;;;;;5027380;28;20228;-71
2021/12/20 03:46:18;;;;;;;1.60;0.73;;;1.70;99.90;;;;;;5030979;28;20204;-72
2021/12/20 03:48:44;;;;;;;3.30;0.80;;;1.80;99.90;;;;;;5031115;28;20245;-74
2021/12/20 03:51:11;;;;;;;2.73;0.60;;;1.70;99.90;;;;;;5031137;28;20209;-73
2021/12/20 03:53:38;;;;;;;4.10;0.90;;;1.70;99.90;;;;;;5030982;28;20216;-74
2021/12/20 03:56:07;;;;;;;2.23;0.90;;;1.60;99.90;;;;;;5030399;28;20282;-71
2021/12/20 03:58:35;;;;;;;5.97;1.27;;;1.70;99.90;;;;;;5030798;28;20606;-71
2021/12/20 04:01:09;;;;;;;1.80;1.00;;;1.80;99.90;;;;;;5030953;28;20315;-71
2021/12/20 04:03:36;;;;;;;2.00;0.90;;;1.80;99.90;;;;;;5030643;28;20223;-71
2021/12/20 04:06:07;;;;;;;5.37;0.90;;;1.70;99.90;;;;;;5030402;28;20212;-71
2021/12/20 04:08:34;;;;;;;2.13;1.00;;;1.70;99.90;;;;;;5030525;28;20263;-71
2021/12/20 04:11:04;;;;;;;4.67;0.90;;;1.70;99.90;;;;;;5030699;28;20213;-71
2021/12/20 04:13:32;;;;;;;1.87;1.10;;;1.80;99.90;;;;;;5030529;28;20212;-71
2021/12/20 04:15:58;;;;;;;4.13;1.30;;;1.80;99.90;;;;;;5030522;28;20208;-71
2021/12/20 04:18:28;;;;;;;3.10;1.00;;;1.70;99.90;;;;;;5030420;28;20235;-71
2021/12/20 04:20:55;;;;;;;2.83;1.13;;;1.70;99.90;;;;;;5029979;28;20275;-71
2021/12/20 04:23:22;;;;;;;1.27;1.00;;;1.70;99.90;;;;;;5030005;28;20602;-71
2021/12/20 04:25:48;;;;;;;3.90;1.10;;;1.60;99.90;;;;;;5030042;28;20286;-71
2021/12/20 04:28:15;;;;;;;2.57;1.10;;;1.50;99.90;;;;;;5030400;28;20201;-71
2021/12/20 04:30:42;;;;;;;1.00;0.60;;;1.40;99.90;;;;;;5028804;28;20239;-70
2021/12/20 04:33:09;;;;;;;5.63;1.00;;;1.40;99.90;;;;;;5024762;28;20213;-72
2021/12/20 04:35:37;;;;;;;1.03;0.83;;;1.40;99.90;;;;;;5025181;28;20721;-74
2021/12/20 04:38:04;;;;;;;1.60;0.93;;;1.40;99.90;;;;;;5030125;28;20216;-74
2021/12/20 04:40:31;;;;;;;1.07;0.93;;;1.40;99.90;;;;;;5030041;28;20205;-73
2021/12/20 04:42:59;;;;;;;3.03;1.10;;;1.30;99.90;;;;;;5030208;28;20247;-74
2021/12/20 04:45:28;;;;;;;2.23;0.97;;;1.30;99.90;;;;;;5030054;28;20290;-74
2021/12/20 04:47:56;;;;;;;3.27;0.70;;;1.40;99.90;;;;;;5020097;28;20776;-74
2021/12/20 04:50:23;;;;;;;1.50;0.80;;;1.40;99.90;;;;;;5010150;28;20213;-75
2021/12/20 04:52:52;;;;;;;5.00;1.40;;;1.40;99.90;;;;;;5009879;28;20696;-74
2021/12/20 04:55:19;;;;;;;3.87;1.20;;;1.40;99.90;;;;;;5009728;28;20252;-74
2021/12/20 04:57:47;;;;;;;5.77;1.20;;;1.20;99.90;;;;;;5009344;28;20613;-74
2021/12/20 05:00:18;;;;;;;5.70;1.30;;;1.30;99.90;;;;;;5009943;28;20225;-74
2021/12/20 05:02:45;;;;;;;2.73;1.30;;;1.30;99.90;;;;;;5009873;28;20839;-74
2021/12/20 05:05:12;;;;;;;2.60;1.07;;;1.40;99.90;;;;;;5009707;28;20715;-74
2021/12/20 05:07:41;;;;;;;3.30;1.53;;;1.40;99.90;;;;;;5009841;28;20205;-74
2021/12/20 05:10:13;;;;;;;3.13;1.20;;;1.40;99.90;;;;;;5012384;28;20213;-74
2021/12/20 05:12:40;;;;;;;0.67;0.60;;;1.30;99.90;;;;;;5015530;28;20215;-72
2021/12/20 05:15:07;;;;;;;4.43;1.23;;;1.30;99.90;;;;;;5020737;28;20209;-72
2021/12/20 05:17:36;;;;;;;2.53;1.00;;;1.20;99.90;;;;;;5028961;28;20213;-72
2021/12/20 05:20:03;;;;;;;2.73;1.07;;;1.20;99.90;;;;;;5029833;28;20211;-72
2021/12/20 05:22:29;;;;;;;2.30;1.30;;;1.20;99.90;;;;;;5025038;28;20237;-71
2021/12/20 05:24:56;;;;;;;4.90;1.00;;;1.20;99.90;;;;;;5009895;28;20237;-71
2021/12/20 05:27:24;;;;;;;6.50;1.30;;;1.10;99.90;;;;;;5009723;28;20716;-71
2021/12/20 05:29:51;;;;;;;5.73;1.27;;;1.10;99.90;;;;;;5009927;28;20205;-72
2021/12/20 05:32:18;;;;;;;2.70;1.30;;;1.10;99.90;;;;;;5009590;28;20296;-72
2021/12/20 05:34:44;;;;;;;4.60;1.10;;;1.10;99.90;;;;;;5009558;28;20579;-72
2021/12/20 05:37:13;;;;;;;4.63;0.90;;;1.10;99.90;;;;;;5009477;28;20210;-70
2021/12/20 05:39:40;;;;;;;4.20;1.10;;;1.10;99.90;;;;;;5022188;28;20212;-72
2021/12/20 05:42:10;;;;;;;4.57;1.40;;;1.10;99.90;;;;;;5029015;28;20423;-72
2021/12/20 05:44:38;;;;;;;3.37;1.40;;;1.10;99.90;;;;;;5028728;28;20236;-72
2021/12/20 05:47:05;;;;;;;3.70;1.50;;;1.20;99.90;;;;;;5026018;28;20208;-72
2021/12/20 05:49:32;;;;;;;4.73;1.40;;;1.30;99.90;;;;;;5026047;28;20209;-72
2021/12/20 05:51:59;;;;;;;2.37;1.03;;;1.20;99.90;;;;;;5013039;28;20216;-72
2021/12/20 05:54:26;;;;;;;3.47;1.07;;;1.20;99.90;;;;;;5008570;28;20957;-72
2021/12/20 05:56:53;;;;;;;4.47;1.43;;;1.30;99.90;;;;;;5008925;28;20645;-72
2021/12/20 05:59:19;;;;;;;1.07;0.90;;;1.40;99.90;;;;;;5009111;28;20267;-72
2021/12/20 06:01:47;;;;;;;2.73;1.33;;;1.40;99.90;;;;;;5009008;28;20240;-70
2021/12/20 06:04:14;;;;;;;2.70;1.40;;;1.40;99.90;;;;;;5008910;28;20315;-70
2021/12/20 06:06:41;;;;;;;5.87;1.40;;;1.40;99.90;;;;;;5008828;28;20205;-73
2021/12/20 06:09:08;;;;;;;4.23;1.40;;;1.50;99.90;;;;;;5008898;28;20224;-73
2021/12/20 06:11:35;;;;;;;2.20;1.30;;;1.50;99.90;;;;;;5016970;28;20213;-73
2021/12/20 06:14:01;;;;;;;4.07;1.20;;;1.50;99.90;;;;;;5028726;28;20204;-72
2021/12/20 06:16:28;;;;;;;3.67;1.10;;;1.60;99.90;;;;;;5028194;28;20668;-72
2021/12/20 06:18:56;;;;;;;1.90;1.13;;;1.50;99.90;;;;;;5028461;28;20221;-72
2021/12/20 06:21:23;;;;;;;3.43;1.50;;;1.50;99.90;;;;;;5027822;28;20806;-70
2021/12/20 06:23:50;;;;;;;6.13;2.40;;;1.40;99.90;;;;;;5027736;28;20676;-70
2021/12/20 06:26:17;;;;;;;2.63;1.37;;;1.40;99.90;;;;;;5027803;28;20287;-70
2021/12/20 06:28:44;;;;;;;4.53;1.33;;;1.40;99.90;;;;;;5027656;28;20671;-70
2021/12/20 06:31:11;;;;;;;4.50;1.73;;;1.40;99.90;;;;;;5028072;28;20201;-70
2021/12/20 06:33:37;;;;;;;3.47;1.50;;;1.40;99.90;;;;;;5009257;28;20210;-70
2021/12/20 06:36:08;;;;;;;2.57;1.40;;;1.30;99.90;;;;;;5027861;28;20279;-70
2021/12/20 06:38:35;;;;;;;4.93;1.60;;;1.20;99.90;;;;;;5012499;28;20615;-70
2021/12/20 06:41:05;;;;;;;6.70;1.57;;;1.20;99.90;;;;;;5028252;28;20567;-70
2021/12/20 06:43:32;;;;;;;3.57;1.97;;;1.20;99.90;;;;;;5027939;28;20229;-71
2021/12/20 06:45:58;;;;;;;8.47;2.10;;;1.30;99.90;;;;;;5028086;28;20228;-71
2021/12/20 06:48:25;;;;;;;3.43;1.80;;;1.50;99.90;;;;;;5028027;28;20216;-71
2021/12/20 06:50:52;;;;;;;3.47;1.87;;;1.60;99.90;;;;;;5010190;28;20599;-70
2021/12/20 06:53:20;;;;;;;2.97;1.60;;;1.60;99.90;;;;;;5008318;28;20209;-70
2021/12/20 06:55:47;;;;;;;4.57;1.77;;;1.70;99.90;;;;;;5007790;28;20237;-71
2021/12/20 06:58:13;;;;;;;1.40;1.17;;;1.70;99.90;;;;;;5008443;28;20205;-71
2021/12/20 07:00:40;;;;;;;4.63;1.33;;;1.60;99.90;;;;;;5008220;28;20299;-72
2021/12/20 07:03:07;;;;;;;3.73;1.77;;;1.60;99.90;;;;;;5008320;28;20268;-72
2021/12/20 07:05:33;;;;;;;2.13;1.23;;;1.50;99.90;;;;;;5007965;28;20283;-72
2021/12/20 07:08:02;;;;;;;1.90;1.33;;;1.50;99.90;;;;;;5008272;28;20251;-71
2021/12/20 07:10:30;;;;;;;1.90;1.30;;;1.50;99.90;;;;;;5008406;28;20209;-71
2021/12/20 07:12:57;;;;;;;2.37;1.30;;;1.50;99.90;;;;;;5008300;28;20650;-72
2021/12/20 07:15:25;;;;;;;3.93;1.60;;;1.50;99.90;;;;;;5008445;28;20202;-72
2021/12/20 07:17:51;;;;;;;2.10;1.27;;;1.40;99.90;;;;;;5008132;28;20212;-70
2021/12/20 07:20:18;;;;;;;3.90;1.13;;;1.40;99.90;;;;;;5009763;28;20660;-70
2021/12/20 07:22:45;;;;;;;2.70;1.63;;;1.30;99.90;;;;;;5011759;28;20237;-70
2021/12/20 07:25:12;;;;;;;5.43;1.50;;;1.30;99.90;;;;;;5011531;28;20237;-70
2021/12/20 07:27:40;;;;;;;3.13;1.20;;;1.30;99.90;;;;;;5011631;28;20271;-70
2021/12/20 07:30:09;;;;;;;3.67;1.30;;;1.30;99.90;;;;;;5011834;28;20433;-72
2021/12/20 07:32:35;;;;;;;0.90;0.90;;;1.30;99.90;;;;;;5011415;28;20695;-73
2021/12/20 07:35:02;;;;;;;3.13;1.20;;;1.20;99.90;;;;;;5012021;28;20209;-73
2021/12/20 07:37:28;;;;;;;4.00;1.30;;;1.20;99.90;;;;;;5011798;28;20624;-73
2021/12/20 07:39:55;;;;;;;2.83;1.43;;;1.20;99.90;;;;;;5011525;28;20220;-70
2021/12/20 07:42:22;;;;;;;1.93;1.00;;;1.10;99.90;;;;;;5011649;28;20214;-70
2021/12/20 07:44:50;;;;;;;2.33;1.30;;;1.10;99.90;;;;;;5011194;28;20240;-70
2021/12/20 07:47:17;;;;;;;2.20;1.10;;;1.20;99.90;;;;;;5011324;28;20268;-70
2021/12/20 07:49:43;;;;;;;3.27;1.50;;;1.20;99.90;;;;;;5011198;28;20214;-70
2021/12/20 07:52:10;;;;;;;3.50;1.60;;;1.20;99.90;;;;;;5011034;28;20295;-70
2021/12/20 07:54:37;;;;;;;3.23;2.43;;;1.30;99.90;;;;;;5010956;28;20245;-70
2021/12/20 07:57:04;;;;;;;9.13;2.10;;;1.20;99.90;;;;;;5011417;28;20279;-70
2021/12/20 07:59:30;;;;;;;2.53;2.13;;;1.30;99.90;;;;;;5011269;28;20225;-70
2021/12/20 08:01:58;;;;;;;7.80;1.90;;;1.30;99.90;;;;;;5011081;28;20209;-70
2021/12/20 08:04:25;;;;;;;3.47;1.50;;;1.30;99.90;;;;;;5011235;28;20209;-73
2021/12/20 08:06:52;;;;;;;3.80;2.50;;;1.30;99.90;;;;;;5010939;28;20240;-72
2021/12/20 08:09:18;;;;;;;5.33;2.00;;;1.40;99.90;;;;;;5011397;28;20213;-73
2021/12/20 08:11:45;;;;;;;1.57;1.27;;;1.40;99.90;;;;;;5011134;28;20218;-72
2021/12/20 08:14:12;;;;;;;2.67;1.50;;;1.40;99.90;;;;;;5011227;28;20214;-72
2021/12/20 08:16:38;;;;;;;1.53;1.23;;;1.50;99.90;;;;;;5010785;28;20691;-72
2021/12/20 08:19:07;;;;;;;2.77;1.30;;;1.50;99.90;;;;;;5010923;28;20903;-72
2021/12/20 08:21:33;;;;;;;1.97;1.20;;;1.40;99.90;;;;;;5010319;28;20645;-72
2021/12/20 08:24:00;;;;;;;5.50;1.40;;;1.50;99.90;;;;;;5010917;28;20281;-72
2021/12/20 08:26:27;;;;;;;2.87;1.40;;;1.60;99.90;;;;;;5010663;28;20237;-72
2021/12/20 08:28:53;;;;;;;4.73;1.37;;;1.70;99.90;;;;;;5010623;28;20216;-72
2021/12/20 08:31:20;;;;;;;1.57;1.23;;;1.70;99.90;;;;;;5009434;28;20641;-72
2021/12/20 08:33:47;;;;;;;2.30;1.43;;;1.80;99.90;;;;;;5010510;28;20216;-72
2021/12/20 08:36:15;;;;;;;4.27;1.70;;;1.80;99.90;;;;;;5010597;28;20212;-71
2021/12/20 08:38:42;;;;;;;4.60;1.50;;;1.80;99.90;;;;;;5010176;28;20205;-70
2021/12/20 08:41:11;;;;;;;5.17;2.07;;;1.80;99.90;;;;;;5010392;28;20259;-71
2021/12/20 08:43:38;;;;;;;5.77;2.00;;;1.80;99.90;;;;;;5010152;28;20229;-70
2021/12/20 08:46:09;;;;;;;2.23;1.53;;;1.90;99.90;;;;;;5010391;28;20280;-72
2021/12/20 08:48:36;;;;;;;5.97;1.70;;;1.80;99.90;;;;;;5010425;28;20951;-72
2021/12/20 08:51:07;;;;;;;2.33;1.63;;;1.90;99.90;;;;;;5010053;28;20205;-71
2021/12/20 08:53:35;;;;;;;2.40;1.30;;;2.00;99.90;;;;;;5010097;28;20233;-72
2021/12/20 08:56:05;;;;;;;4.97;2.03;;;2.10;99.90;;;;;;5009794;28;20241;-72
2021/12/20 08:58:31;;;;;;;2.70;1.63;;;2.10;99.90;;;;;;5009740;28;20661;-72
2021/12/20 09:00:58;;;;;;;2.80;1.50;;;2.10;99.90;;;;;;5010015;28;20236;-74
2021/12/20 09:03:25;;;;;;;4.63;1.63;;;2.30;99.90;;;;;;5009902;28;20216;-73
2021/12/20 09:05:52;;;;;;;5.20;1.60;;;2.50;99.90;;;;;;5005092;28;20708;-72
2021/12/20 09:08:21;;;;;;;1.63;1.37;;;2.70;99.90;;;;;;5006061;28;20213;-72
2021/12/20 09:10:50;;;;;;;3.90;1.60;;;2.70;99.90;;;;;;5006085;28;20209;-72
2021/12/20 09:13:17;;;;;;;3.77;1.60;;;2.80;99.90;;;;;;5005905;28;20213;-71
2021/12/20 09:15:44;;;;;;;2.60;1.50;;;2.80;99.90;;;;;;5005214;28;20255;-71
2021/12/20 09:18:10;;;;;;;3.97;1.50;;;2.90;99.90;;;;;;5024954;28;20208;-71
2021/12/20 09:20:38;;;;;;;2.20;1.40;;;3.00;99.90;;;;;;5025217;28;20793;-72
2021/12/20 09:23:08;;;;;;;1.53;1.40;;;3.00;99.90;;;;;;5020878;28;20209;-72
2021/12/20 09:25:38;;;;;;;3.33;1.70;;;3.10;99.90;;;;;;5012504;28;20703;-72
2021/12/20 09:28:10;;;;;;;2.63;1.30;;;3.10;99.90;;;;;;5019105;28;20213;-72
2021/12/20 09:30:38;;;;;;;2.87;1.70;;;3.00;99.90;;;;;;5005612;28;20205;-72
2021/12/20 09:33:06;;;;;;;1.90;1.50;;;3.10;99.90;;;;;;5005895;28;20209;-72
2021/12/20 09:35:33;;;;;;;2.47;1.17;;;3.00;99.90;;;;;;5005598;28;20217;-72
2021/12/20 09:38:00;;;;;;;1.80;1.43;;;3.00;99.90;;;;;;5005750;28;20268;-73
2021/12/20 09:40:33;;;;;;;3.53;1.50;;;3.10;99.90;;;;;;5005753;28;20205;-72
2021/12/20 09:43:02;;;;;;;2.10;1.60;;;3.20;99.90;;;;;;5005089;28;20229;-76
2021/12/20 09:45:31;;;;;;;1.93;1.50;;;3.20;99.90;;;;;;5006152;28;20233;-76
2021/12/20 09:47:58;;;;;;;3.97;1.50;;;3.20;99.90;;;;;;5005683;28;20236;-76
2021/12/20 09:50:26;;;;;;;3.33;1.67;;;3.30;99.90;;;;;;5006483;28;20746;-74
2021/12/20 09:52:52;;;;;;;1.97;1.30;;;3.50;99.90;;;;;;5009756;28;20208;-73
2021/12/20 09:55:19;;;;;;;5.33;1.67;;;3.60;99.90;;;;;;5025637;28;20244;-72
2021/12/20 09:57:49;;;;;;;2.53;1.60;;;3.50;99.90;;;;;;5025669;28;20263;-73
2021/12/20 10:00:18;;;;;;;1.80;1.47;;;3.50;99.90;;;;;;5025624;28;20248;-73
2021/12/20 10:02:47;;;;;;;2.70;1.50;;;3.50;99.90;;;;;;5025733;28;20204;-74
2021/12/20 10:05:15;;;;;;;3.80;1.57;;;3.60;99.90;;;;;;5025407;28;20672;-72
2021/12/20 10:07:47;;;;;;;3.10;1.53;;;3.50;99.90;;;;;;5025237;28;20732;-72
2021/12/20 10:10:14;;;;;;;3.57;1.60;;;3.50;99.90;;;;;;5025494;28;20288;-72
2021/12/20 10:12:49;;;;;;;4.13;1.70;;;3.50;99.90;;;;;;5025178;28;20204;-72
2021/12/20 10:15:16;;;;;;;2.60;1.47;;;3.50;99.90;;;;;;5025308;28;20206;-72
2021/12/20 10:17:55;;;;;;;2.87;1.50;;;3.70;99.90;;;;;;5024709;28;20262;-72
2021/12/20 10:20:24;;;;;;;5.10;1.57;;;3.80;99.90;;;;;;5025349;28;20228;-72
2021/12/20 10:22:51;;;;;;;3.60;1.67;;;4.00;99.90;;;;;;5024866;28;20215;-72
2021/12/20 10:25:24;;;;;;;5.97;1.80;;;3.90;99.90;;;;;;5025055;28;20205;-72
2021/12/20 10:27:55;;;;;;;3.60;1.77;;;4.00;99.90;;;;;;5024476;28;20668;-72
2021/12/20 10:30:26;;;;;;;3.23;1.87;;;4.10;99.90;;;;;;5025263;28;20205;-72
2021/12/20 10:32:55;;;;;;;2.37;1.50;;;4.20;99.90;;;;;;5024941;28;20200;-73
2021/12/20 10:35:37;;;;;;;2.20;1.60;;;4.30;99.90;;;;;;5025015;28;20216;-72
2021/12/20 10:38:08;;;;;;;7.17;2.03;;;4.40;99.90;;;;;;5024796;28;20232;-73
2021/12/20 10:40:46;;;;;;;3.00;2.50;;;4.30;99.90;;;;;;5024589;28;20201;-71
2021/12/20 10:43:15;;;;;;;1.33;1.23;;;4.50;99.90;;;;;;5024440;28;20290;-71
2021/12/20 10:45:41;;;;;;;6.00;1.50;;;4.70;99.90;;;;;;5023051;28;20235;-72
2021/12/20 10:48:11;;;;;;;4.37;1.50;;;4.80;99.90;;;;;;5027102;28;20204;-73
2021/12/20 10:50:42;;;;;;;3.07;1.33;;;4.80;99.90;;;;;;5027544;28;20208;-73
2021/12/20 10:53:21;;;;;;;4.60;1.70;;;4.90;99.90;;;;;;5027833;28;20275;-73
2021/12/20 10:55:50;;;;;;;1.80;1.40;;;4.90;99.90;;;;;;5029862;28;20268;-72
2021/12/20 10:58:32;;;;;;;2.70;1.47;;;4.80;99.90;;;;;;5030735;28;20228;-72
2021/12/20 11:01:05;;;;;;;2.53;1.70;;;4.90;99.90;;;;;;5030333;28;20400;-73
2021/12/20 11:03:38;;;;;;;2.53;1.67;;;4.90;99.90;;;;;;5030266;28;20201;-72
2021/12/20 11:06:24;;;;;;;3.03;1.30;;;5.00;99.90;;;;;;5030305;28;20212;-73
2021/12/20 11:09:06;;;;;;;5.03;1.30;;;5.10;99.90;;;;;;5029968;28;20242;-73
2021/12/20 11:11:35;;;;;;;2.90;1.77;;;5.20;99.90;;;;;;5030972;28;20193;-72
2021/12/20 11:14:04;;;;;;;4.03;1.60;;;5.20;99.90;;;;;;5031720;28;20278;-72
2021/12/20 11:16:33;;;;;;;3.50;1.50;;;5.30;99.90;;;;;;5031249;28;20208;-72
2021/12/20 11:19:18;;;;;;;4.17;1.90;;;5.50;99.90;;;;;;5031112;28;20209;-73
2021/12/20 11:21:51;;;;;;;4.23;1.67;;;5.70;99.90;;;;;;5031026;28;20793;-73
2021/12/20 11:24:19;;;;;;;1.57;1.47;;;5.70;99.90;;;;;;5031332;28;20228;-72
2021/12/20 11:26:47;;;;;;;1.47;1.20;;;5.80;99.90;;;;;;5031212;28;20228;-72
2021/12/20 11:29:14;;;;;;;3.43;1.93;;;5.90;99.90;;;;;;5031254;28;20232;-72
2021/12/20 11:31:42;;;;;;;3.07;1.50;;;6.10;99.90;;;;;;5031333;28;20212;-72
2021/12/20 11:34:10;;;;;;;2.87;1.40;;;6.20;99.90;;;;;;5031234;28;20258;-73
2021/12/20 11:36:37;;;;;;;3.77;1.70;;;6.20;99.90;;;;;;5030956;28;20804;-73
2021/12/20 11:39:05;;;;;;;3.23;1.50;;;6.30;99.90;;;;;;5030915;28;20556;-73
2021/12/20 11:41:32;;;;;;;2.60;1.40;;;6.20;99.90;;;;;;5030979;28;20287;-73
2021/12/20 11:44:00;;;;;;;3.97;1.70;;;6.30;99.90;;;;;;5031464;28;20299;-73
2021/12/20 11:46:33;;;;;;;5.10;1.70;;;6.30;99.90;;;;;;5031048;28;20228;-72
2021/12/20 11:49:00;;;;;;;2.73;1.50;;;6.40;99.90;;;;;;5031386;28;20268;-73
2021/12/20 11:51:28;;;;;;;3.07;1.63;;;6.60;99.90;;;;;;5030830;28;20213;-73
2021/12/20 11:53:55;;;;;;;4.07;1.50;;;6.30;99.90;;;;;;5031075;28;20204;-73
2021/12/20 11:56:37;;;;;;;3.23;1.50;;;6.30;99.90;;;;;;5030654;28;20241;-73
2021/12/20 11:59:04;;;;;;;1.87;1.37;;;6.40;99.90;;;;;;5030885;28;20569;-71
2021/12/20 12:01:31;;;;;;;4.83;1.53;;;6.50;99.90;;;;;;5030701;28;20208;-72
2021/12/20 12:03:59;;;;;;;2.90;1.63;;;6.40;99.90;;;;;;5030590;28;20852;-72
2021/12/20 12:06:29;;;;;;;3.57;1.40;;;6.40;99.90;;;;;;5023312;28;20225;-72
2021/12/20 12:08:59;;;;;;;2.97;1.57;;;6.30;99.90;;;;;;5027739;28;20212;-72
2021/12/20 12:11:46;;;;;;;3.43;1.43;;;6.20;99.90;;;;;;5027359;28;20205;-73
2021/12/20 12:14:22;;;;;;;3.37;1.40;;;6.30;99.90;;;;;;5025671;28;20343;-72
2021/12/20 12:16:58;;;;;;;2.63;1.40;;;6.10;99.90;;;;;;5027586;28;20204;-73
2021/12/20 12:19:40;;;;;;;2.13;1.60;;;5.80;99.90;;;;;;5027868;28;20236;-72
2021/12/20 12:22:34;;;;;;;2.80;1.57;;;5.70;99.90;;;;;;5027767;28;20208;-73
2021/12/20 12:25:01;;;;;;;4.93;1.90;;;5.60;99.90;;;;;;5027574;28;20238;-73
2021/12/20 12:27:29;;;;;;;2.80;1.50;;;5.50;99.90;;;;;;5027507;28;20294;-73
2021/12/20 12:30:30;;;;;;;3.40;1.70;;;5.40;99.90;;;;;;5027820;28;20315;-73
2021/12/20 12:33:22;;;;;;;2.80;1.30;;;5.30;99.90;;;;;;5027892;28;20204;-73
2021/12/20 12:35:54;;;;;;;7.10;1.73;;;5.30;99.90;;;;;;5027517;28;20256;-73
2021/12/20 12:38:25;;;;;;;3.57;1.80;;;5.50;99.90;;;;;;5028052;28;20251;-72
2021/12/20 12:41:08;;;;;;;4.70;2.17;;;5.70;99.90;;;;;;5028443;28;20193;-73
2021/12/20 12:43:52;;;;;;;4.37;1.80;;;5.90;99.90;;;;;;5027370;28;20208;-72
2021/12/20 12:47:03;;;;;;;2.90;1.87;;;5.90;99.90;;;;;;5024490;28;20235;-73
2021/12/20 12:49:48;;;;;;;6.67;2.33;;;5.90;99.90;;;;;;5019958;28;20209;-73
2021/12/20 12:52:47;;;;;;;3.90;1.70;;;5.80;99.90;;;;;;5007662;28;20221;-73
2021/12/20 12:55:31;;;;;;;3.43;1.30;;;5.90;99.90;;;;;;5018069;28;20718;-73
2021/12/20 12:57:59;;;;;;;3.07;1.47;;;5.90;99.90;;;;;;5027140;28;20717;-73
2021/12/20 13:00:33;;;;;;;1.90;1.37;;;5.90;99.90;;;;;;5026970;28;20630;-73
2021/12/20 13:03:12;;;;;;;2.13;1.30;;;5.90;99.90;;;;;;5027078;28;20193;-73
2021/12/20 13:05:39;;;;;;;4.30;1.53;;;6.00;99.90;;;;;;5027300;28;20286;-73
2021/12/20 13:08:07;;;;;;;5.27;1.73;;;5.90;99.90;;;;;;5027347;28;20237;-72
2021/12/20 13:10:39;;;;;;;3.30;1.57;;;5.90;99.90;;;;;;5026785;28;20615;-73
2021/12/20 13:13:09;;;;;;;2.50;1.67;;;5.70;99.90;;;;;;5027158;28;20205;-73
2021/12/20 13:15:41;;;;;;;2.30;1.40;;;5.60;99.90;;;;;;5026976;28;20311;-73
2021/12/20 13:18:10;;;;;;;3.53;1.73;;;5.60;99.90;;;;;;5025930;28;20207;-73
2021/12/20 13:20:45;;;;;;;4.57;1.70;;;5.60;99.90;;;;;;5026156;28;20235;-73